Time;durP1;ratioP1;P1;durP2;ratioP2;P2;SDS_P1;SDS_P2;PMS_P1;PMS_P2;Temp;Humidity;BMP_temperature;BMP_pressure;BME280_temperature;BME280_humidity;BME280_pressure;Samples;Min_cycle;Max_cycle;Signal;HPM_P1;HPM_P2
2023/09/09 00:03:49;;;;;;;19.77;14.00;;;;;;;17.42;100.00;101569.84;10366956;28;20058;-68
2023/09/09 00:08:49;;;;;;;16.45;12.93;;;;;;;17.34;100.00;101574.06;10428792;28;20041;-68
2023/09/09 00:13:51;;;;;;;18.67;13.40;;;;;;;17.29;100.00;101573.25;10419957;28;20090;-68
2023/09/09 00:18:52;;;;;;;29.60;14.20;;;;;;;17.22;100.00;101562.41;10433845;28;20054;-69
2023/09/09 00:23:53;;;;;;;23.83;16.80;;;;;;;17.26;100.00;101557.09;10438062;28;20041;-68
2023/09/09 00:28:53;;;;;;;22.98;17.13;;;;;;;17.30;100.00;101559.06;10432796;28;20030;-69
2023/09/09 00:33:54;;;;;;;23.83;16.15;;;;;;;17.29;100.00;101542.63;10434538;28;20041;-68
2023/09/09 00:38:54;;;;;;;23.77;17.73;;;;;;;17.29;100.00;101539.84;10418142;28;20069;-69
2023/09/09 00:43:55;;;;;;;21.42;16.30;;;;;;;17.27;100.00;101545.69;10434222;28;20040;-69
2023/09/09 00:48:55;;;;;;;21.67;15.57;;;;;;;17.23;100.00;101532.63;10437806;28;20037;-69
2023/09/09 00:53:56;;;;;;;21.80;16.02;;;;;;;17.20;100.00;101541.53;10433271;28;20516;-69
2023/09/09 00:58:56;;;;;;;26.55;17.30;;;;;;;17.13;100.00;101539.88;10419113;28;20045;-69
2023/09/09 01:03:57;;;;;;;26.83;16.77;;;;;;;17.04;100.00;101532.41;10431888;28;20037;-69
2023/09/09 01:08:57;;;;;;;24.83;17.88;;;;;;;17.02;100.00;101538.25;10391888;28;20136;-66
2023/09/09 01:13:58;;;;;;;22.77;17.25;;;;;;;17.00;100.00;101537.69;10421514;28;25628;-69
2023/09/09 01:18:59;;;;;;;25.00;17.15;;;;;;;16.98;100.00;101541.88;10433293;28;20045;-68
2023/09/09 01:23:59;;;;;;;27.02;18.88;;;;;;;16.92;100.00;101546.63;10431157;28;20037;-69
2023/09/09 01:28:59;;;;;;;22.63;17.02;;;;;;;16.89;100.00;101544.41;10441017;28;20037;-69
2023/09/09 01:34:00;;;;;;;26.27;18.33;;;;;;;16.87;100.00;101538.28;10442735;28;20034;-69
2023/09/09 01:39:00;;;;;;;27.92;19.73;;;;;;;16.86;100.00;101537.44;10443444;28;20045;-68
2023/09/09 01:44:01;;;;;;;30.90;19.15;;;;;;;16.82;100.00;101541.91;10443429;28;20038;-69
2023/09/09 01:49:03;;;;;;;26.55;19.02;;;;;;;16.77;100.00;101529.94;10440419;28;20546;-69
2023/09/09 01:54:03;;;;;;;26.70;19.33;;;;;;;16.72;100.00;101528.81;10439877;28;20041;-69
2023/09/09 01:59:04;;;;;;;29.50;20.40;;;;;;;16.70;100.00;101531.06;10443786;28;20037;-68
2023/09/09 02:04:04;;;;;;;32.45;21.67;;;;;;;16.68;100.00;101530.50;10444141;28;20052;-69
2023/09/09 02:09:05;;;;;;;30.88;21.05;;;;;;;16.63;100.00;101527.72;10439733;28;20097;-68
2023/09/09 02:14:05;;;;;;;32.60;20.65;;;;;;;16.57;100.00;101534.38;10437357;28;20134;-69
2023/09/09 02:19:05;;;;;;;30.40;21.67;;;;;;;16.55;100.00;101533.81;10441820;28;20037;-69
2023/09/09 02:24:06;;;;;;;29.85;21.15;;;;;;;16.59;100.00;101531.34;10439525;28;20038;-69
2023/09/09 02:29:06;;;;;;;34.88;23.20;;;;;;;16.62;100.00;101526.06;10444833;28;20041;-68
2023/09/09 02:34:07;;;;;;;36.50;23.50;;;;;;;16.60;100.00;101521.88;10439839;28;20053;-68
2023/09/09 02:39:07;;;;;;;31.35;23.25;;;;;;;16.60;100.00;101522.72;10440718;28;20037;-68
2023/09/09 02:44:08;;;;;;;31.17;22.00;;;;;;;16.53;100.00;101511.03;10439373;28;20037;-68
2023/09/09 02:49:08;;;;;;;39.92;26.13;;;;;;;16.65;100.00;101522.69;10439696;28;20041;-69
2023/09/09 02:54:09;;;;;;;37.88;26.08;;;;;;;16.58;100.00;101511.03;10441091;28;20060;-68
2023/09/09 02:59:09;;;;;;;40.65;26.98;;;;;;;16.62;100.00;101509.38;10439723;28;20041;-68
2023/09/09 03:04:10;;;;;;;35.10;24.20;;;;;;;16.49;100.00;101521.88;10440645;28;20040;-67
2023/09/09 03:09:13;;;;;;;32.40;22.90;;;;;;;16.45;100.00;101520.75;10437284;28;20052;-67
2023/09/09 03:14:13;;;;;;;36.95;25.02;;;;;;;16.40;100.00;101509.66;10442943;28;20043;-68
2023/09/09 03:19:13;;;;;;;38.65;27.05;;;;;;;16.46;100.00;101510.50;10436006;28;20052;-68
2023/09/09 03:24:14;;;;;;;38.50;25.40;;;;;;;16.40;100.00;101515.22;10435499;28;20044;-67
2023/09/09 03:29:14;;;;;;;44.92;28.60;;;;;;;16.37;100.00;101512.16;10443648;28;20036;-68
2023/09/09 03:34:15;;;;;;;44.47;29.45;;;;;;;16.37;100.00;101513.00;10435788;28;20053;-68
2023/09/09 03:39:15;;;;;;;43.35;29.15;;;;;;;16.36;100.00;101510.50;10440824;28;20374;-68
2023/09/09 03:44:16;;;;;;;42.65;29.27;;;;;;;16.33;100.00;101507.16;10436013;28;20045;-68
2023/09/09 03:49:16;;;;;;;42.08;27.58;;;;;;;16.29;100.00;101505.22;10432512;28;20512;-68
2023/09/09 03:54:17;;;;;;;44.88;29.33;;;;;;;16.29;100.00;101499.66;10437693;28;20033;-67
2023/09/09 03:59:17;;;;;;;46.47;28.20;;;;;;;16.27;100.00;101502.72;10439057;28;20055;-65
2023/09/09 04:04:18;;;;;;;44.03;31.25;;;;;;;16.20;100.00;101506.88;10439409;28;20087;-67
2023/09/09 04:09:22;;;;;;;45.92;31.70;;;;;;;16.16;100.00;101522.44;10439792;28;20044;-68
2023/09/09 04:14:23;;;;;;;45.88;30.67;;;;;;;16.15;100.00;101529.94;10432771;28;20048;-68
2023/09/09 04:19:23;;;;;;;52.85;35.03;;;;;;;16.17;100.00;101508.25;10439366;28;20041;-67
2023/09/09 04:24:24;;;;;;;51.40;34.10;;;;;;;16.25;100.00;101521.59;10434622;28;20037;-68
2023/09/09 04:29:24;;;;;;;49.15;32.95;;;;;;;16.22;100.00;101505.47;10441370;28;20087;-67
2023/09/09 04:34:24;;;;;;;53.90;33.28;;;;;;;16.19;100.00;101511.59;10434546;28;20436;-68
2023/09/09 04:39:25;;;;;;;48.15;31.08;;;;;;;16.22;100.00;101518.53;10431581;28;20042;-67
2023/09/09 04:44:25;;;;;;;49.50;34.58;;;;;;;16.21;100.00;101514.94;10439224;28;20059;-67
2023/09/09 04:49:26;;;;;;;51.60;33.33;;;;;;;16.19;100.00;101522.72;10433220;28;20045;-67
2023/09/09 04:54:26;;;;;;;51.67;34.00;;;;;;;16.19;100.00;101519.94;10437443;28;20440;-67
2023/09/09 04:59:27;;;;;;;48.25;32.78;;;;;;;16.13;100.00;101521.03;10435434;28;20474;-68
2023/09/09 05:04:27;;;;;;;51.85;34.40;;;;;;;16.14;100.00;101522.69;10432218;28;20318;-68
2023/09/09 05:09:28;;;;;;;50.20;33.55;;;;;;;16.14;100.00;101529.09;10442885;28;20037;-68
2023/09/09 05:14:28;;;;;;;47.40;32.95;;;;;;;16.15;100.00;101516.03;10446915;28;20041;-68
2023/09/09 05:19:29;;;;;;;57.03;37.50;;;;;;;16.15;100.00;101521.59;10442382;28;20042;-67
2023/09/09 05:24:29;;;;;;;55.15;35.22;;;;;;;16.20;100.00;101520.75;10446242;28;20037;-67
2023/09/09 05:29:29;;;;;;;53.00;35.33;;;;;;;16.24;100.00;101519.94;10440323;28;20052;-67
2023/09/09 05:34:30;;;;;;;57.00;34.95;;;;;;;16.32;100.00;101526.88;10440476;28;20037;-67
2023/09/09 05:39:30;;;;;;;54.88;36.33;;;;;;;16.39;100.00;101523.81;10444640;28;20044;-68
2023/09/09 05:44:31;;;;;;;55.33;38.30;;;;;;;16.38;100.00;101505.50;10437939;28;20371;-68
2023/09/09 05:49:31;;;;;;;59.03;39.83;;;;;;;16.51;100.00;101527.97;10441893;28;20037;-66
2023/09/09 05:54:32;;;;;;;58.95;39.08;;;;;;;16.54;100.00;101534.97;10439178;28;20045;-68
2023/09/09 05:59:32;;;;;;;57.58;39.22;;;;;;;16.61;100.00;101534.66;10443694;28;20770;-68
2023/09/09 06:04:33;;;;;;;58.40;38.08;;;;;;;16.71;100.00;101535.50;10440423;28;20076;-69
2023/09/09 06:09:33;;;;;;;55.60;35.63;;;;;;;16.90;100.00;101537.72;10442781;28;20049;-68
2023/09/09 06:14:34;;;;;;;60.03;39.65;;;;;;;17.17;100.00;101536.53;10443716;28;20037;-68
2023/09/09 06:19:34;;;;;;;60.47;40.03;;;;;;;17.50;100.00;101547.00;10439916;28;20414;-68
2023/09/09 06:24:34;;;;;;;53.95;35.95;;;;;;;17.86;100.00;101543.22;10440407;28;20662;-68
2023/09/09 06:29:35;;;;;;;47.40;33.67;;;;;;;18.15;100.00;101546.13;10441205;28;20493;-69
2023/09/09 06:34:36;;;;;;;48.35;33.83;;;;;;;18.43;100.00;101554.84;10438609;28;20443;-68
2023/09/09 06:39:37;;;;;;;44.60;32.20;;;;;;;18.72;100.00;101554.88;10444203;28;20037;-68
2023/09/09 06:44:37;;;;;;;43.33;29.90;;;;;;;18.95;100.00;101556.94;10400178;28;20052;-68
2023/09/09 06:49:38;;;;;;;40.22;28.45;;;;;;;19.22;100.00;101568.63;10396176;28;20053;-67
2023/09/09 06:54:38;;;;;;;41.28;27.80;;;;;;;19.48;100.00;101574.78;10351278;28;20453;-69
2023/09/09 06:59:39;;;;;;;41.47;27.02;;;;;;;19.67;100.00;101569.22;10352188;28;20049;-68
2023/09/09 07:04:39;;;;;;;33.97;25.33;;;;;;;19.88;100.00;101570.63;10388512;28;20038;-69
2023/09/09 07:09:40;;;;;;;36.90;28.33;;;;;;;20.11;100.00;101563.34;10369477;28;20045;-68
2023/09/09 07:14:40;;;;;;;38.15;26.48;;;;;;;20.26;100.00;101570.66;10431900;28;20477;-68
2023/09/09 07:19:41;;;;;;;36.08;26.70;;;;;;;20.40;100.00;101583.88;10428837;28;20033;-68
2023/09/09 07:24:41;;;;;;;39.20;25.77;;;;;;;;;;10425130;28;20037;-68
2023/09/09 07:29:41;;;;;;;36.90;26.33;;;;;;;20.76;100.00;101584.97;10421657;28;20061;-68
2023/09/09 07:34:42;;;;;;;33.15;24.50;;;;;;;21.05;100.00;101585.91;10418162;28;20330;-68
2023/09/09 07:39:49;;;;;;;32.45;23.50;;;;;;;21.24;100.00;101591.41;10425494;28;20057;-68
2023/09/09 07:44:50;;;;;;;29.23;22.73;;;;;;;21.39;100.00;101587.47;10402765;28;20037;-68
2023/09/09 07:49:51;;;;;;;31.17;22.05;;;;;;;21.53;100.00;101583.56;10435770;28;20033;-68
2023/09/09 07:54:52;;;;;;;31.23;22.17;;;;;;;21.73;100.00;101590.72;10431631;28;20823;-70
2023/09/09 07:59:52;;;;;;;31.70;22.38;;;;;;;21.89;100.00;101588.44;10414091;28;20136;-69
2023/09/09 08:04:53;;;;;;;27.25;19.77;;;;;;;22.06;100.00;101587.78;10418883;28;20116;-68
2023/09/09 08:09:53;;;;;;;27.80;18.88;;;;;;;22.15;100.00;101582.25;10424816;28;20060;-69
2023/09/09 08:15:07;;;;;;;27.45;20.38;;;;;;;22.31;100.00;101583.56;10421854;28;20060;-68
2023/09/09 08:20:07;;;;;;;26.75;20.95;;;;;;;22.46;100.00;101587.16;10412854;28;20041;-68
2023/09/09 08:25:08;;;;;;;28.08;20.48;;;;;;;22.62;100.00;101582.00;10438623;28;20103;-70
2023/09/09 08:30:09;;;;;;;24.50;18.67;;;;;;;22.83;100.00;101571.06;10409201;28;20114;-69
2023/09/09 08:35:09;;;;;;;24.08;18.42;;;;;;;23.07;100.00;101582.81;10399578;28;20049;-69
2023/09/09 08:40:10;;;;;;;27.05;20.52;;;;;;;23.36;100.00;101584.28;10429674;28;20045;-68
2023/09/09 08:45:33;;;;;;;28.83;18.52;;;;;;;23.64;100.00;101589.66;10432321;28;20041;-68
2023/09/09 08:50:38;;;;;;;28.58;19.35;;;;;;;24.01;100.00;101587.47;10405934;28;20412;-69
2023/09/09 08:55:38;;;;;;;24.55;16.73;;;;;;;24.31;100.00;101589.31;10415024;28;20568;-70
2023/09/09 09:00:39;;;;;;;26.58;18.75;;;;;;;24.62;100.00;101585.53;10437329;28;20079;-69
2023/09/09 09:05:39;;;;;;;28.17;17.00;;;;;;;24.91;100.00;101592.44;10436421;28;20033;-70
2023/09/09 09:10:40;;;;;;;25.80;17.20;;;;;;;25.17;100.00;101583.91;10429436;28;20037;-70
2023/09/09 09:15:41;;;;;;;21.80;17.20;;;;;;;25.35;100.00;101570.59;10432474;28;20069;-70
2023/09/09 09:20:42;;;;;;;24.60;17.05;;;;;;;25.70;100.00;101585.34;10435243;28;20037;-70
2023/09/09 09:25:45;;;;;;;21.30;16.05;;;;;;;25.97;100.00;101584.03;10433381;28;20041;-70
2023/09/09 09:30:45;;;;;;;20.90;17.05;;;;;;;26.18;100.00;101583.22;10432761;28;20036;-71
2023/09/09 09:35:45;;;;;;;24.98;15.93;;;;;;;26.31;100.00;101579.28;10435413;28;20041;-71
2023/09/09 09:40:46;;;;;;;27.52;18.85;;;;;;;26.47;100.00;101584.31;10415461;28;20060;-70
2023/09/09 09:45:47;;;;;;;26.52;16.92;;;;;;;26.61;100.00;101584.88;10419509;28;20071;-70
2023/09/09 09:50:47;;;;;;;21.90;17.55;;;;;;;26.84;100.00;101576.03;10436434;28;20128;-70
2023/09/09 09:55:48;;;;;;;17.23;14.65;;;;;;;27.05;100.00;101565.47;10427863;28;20060;-70
2023/09/09 10:00:50;;;;;;;16.55;13.07;;;;;;;27.34;100.00;101563.66;10420246;28;20452;-68
2023/09/09 10:05:52;;;;;;;17.52;13.30;;;;;;;27.49;100.00;101565.81;10437435;28;20034;-70
2023/09/09 10:11:15;;;;;;;17.48;13.05;;;;;;;27.57;100.00;101545.03;10401839;28;20057;-72
2023/09/09 10:16:15;;;;;;;19.20;12.13;;;;;;;27.85;100.00;101557.63;10429567;28;20191;-71
2023/09/09 10:21:16;;;;;;;18.33;12.43;;;;;;;28.04;100.00;101542.88;10419677;28;20037;-71
2023/09/09 10:26:16;;;;;;;15.35;11.38;;;;;;;28.21;100.00;101553.09;10426168;28;20033;-71
2023/09/09 10:31:17;;;;;;;15.68;11.80;;;;;;;28.48;100.00;101549.44;10433336;28;20059;-71
2023/09/09 10:36:17;;;;;;;15.85;13.73;;;;;;;28.57;100.00;101549.31;10439611;28;20616;-70
2023/09/09 10:41:18;;;;;;;13.63;11.48;;;;;;;28.67;100.00;101553.63;10439774;28;20049;-70
2023/09/09 10:46:32;;;;;;;12.20;9.25;;;;;;;28.91;100.00;101547.00;10439259;28;20102;-70
2023/09/09 10:51:45;;;;;;;12.43;9.43;;;;;;;28.85;100.00;101508.78;10436366;28;20033;-71
2023/09/09 10:56:51;;;;;;;11.88;8.73;;;;;;;29.17;100.00;101540.84;10433817;28;20070;-70
2023/09/09 11:02:18;;;;;;;10.80;6.80;;;;;;;29.36;100.00;101554.28;10440229;28;20041;-70
2023/09/09 11:07:19;;;;;;;10.13;8.30;;;;;;;29.48;100.00;101540.00;10430001;28;20508;-70
2023/09/09 11:12:25;;;;;;;10.07;7.97;;;;;;;29.62;100.00;101536.66;10440810;28;20044;-71
2023/09/09 11:17:28;;;;;;;10.05;7.22;;;;;;;29.80;100.00;101548.47;10431705;28;20382;-73
2023/09/09 11:22:29;;;;;;;9.13;6.85;;;;;;;29.76;100.00;101536.19;10431221;28;20045;-73
2023/09/09 11:27:29;;;;;;;7.78;6.70;;;;;;;29.92;100.00;101536.16;10439373;28;20044;-72
2023/09/09 11:32:30;;;;;;;10.70;7.32;;;;;;;30.10;100.00;101539.41;10435307;28;20044;-73
2023/09/09 11:37:30;;;;;;;9.70;8.00;;;;;;;30.01;100.00;101535.94;10436685;28;20046;-73
2023/09/09 11:42:31;;;;;;;9.25;7.35;;;;;;;29.98;100.00;101526.16;10435829;28;20041;-74
2023/09/09 11:47:31;;;;;;;9.80;7.50;;;;;;;30.22;100.00;101527.88;10441318;28;20040;-74
2023/09/09 11:52:32;;;;;;;9.88;6.30;;;;;;;30.48;100.00;101532.91;10404022;28;20037;-74
2023/09/09 11:57:33;;;;;;;10.93;8.23;;;;;;;30.75;100.00;101524.50;10404211;28;20054;-74
2023/09/09 12:02:33;;;;;;;9.07;6.60;;;;;;;31.26;100.00;101495.75;10429641;28;20045;-74
2023/09/09 12:07:35;;;;;;;12.93;8.07;;;;;;;32.28;100.00;101507.41;10433373;28;20049;-73
2023/09/09 12:12:35;;;;;;;11.05;8.98;;;;;;;32.58;100.00;101510.22;10434619;28;20772;-72
2023/09/09 12:17:37;;;;;;;10.48;7.47;;;;;;;33.12;99.01;101500.16;10433935;28;20044;-72
2023/09/09 12:22:50;;;;;;;9.32;6.70;;;;;;;33.25;97.28;101503.53;10434884;28;20037;-74
2023/09/09 12:27:50;;;;;;;8.65;6.38;;;;;;;34.00;94.15;101496.66;10435173;28;20041;-72
2023/09/09 12:32:51;;;;;;;14.40;6.93;;;;;;;34.08;92.27;101502.00;10437032;28;20033;-72
2023/09/09 12:37:51;;;;;;;11.65;8.15;;;;;;;33.63;92.36;101501.34;10435411;28;20032;-72
2023/09/09 12:43:08;;;;;;;13.60;8.73;;;;;;;33.51;92.90;101518.78;10418894;28;20491;-72
2023/09/09 12:48:12;;;;;;;12.07;8.27;;;;;;;33.81;92.06;101518.59;10429465;28;20042;-73
2023/09/09 12:53:12;;;;;;;10.55;8.20;;;;;;;33.34;92.93;101500.31;10435448;28;20047;-73
2023/09/09 12:58:16;;;;;;;13.35;8.13;;;;;;;33.43;94.50;101512.22;10435259;28;20037;-73
2023/09/09 13:03:16;;;;;;;13.88;8.18;;;;;;;33.66;88.51;101511.19;10434466;28;20064;-73
2023/09/09 13:08:17;;;;;;;11.23;8.60;;;;;;;33.87;89.18;101517.00;10432773;28;20046;-73
2023/09/09 13:13:17;;;;;;;14.35;8.07;;;;;;;33.58;91.62;101508.25;10437156;28;20041;-73
2023/09/09 13:18:20;;;;;;;10.43;9.30;;;;;;;32.54;92.56;101520.78;10430330;28;20037;-73
2023/09/09 13:23:21;;;;;;;12.27;8.88;;;;;;;31.21;98.37;101535.06;10440862;28;20049;-72
2023/09/09 13:28:21;;;;;;;15.23;9.63;;;;;;;30.74;99.82;101537.88;10440642;28;20037;-73
2023/09/09 13:33:22;;;;;;;11.02;8.18;;;;;;;31.20;100.00;101541.97;10445848;28;20041;-72
2023/09/09 13:38:22;;;;;;;9.73;7.57;;;;;;;32.93;98.53;101526.88;10439512;28;20044;-72
2023/09/09 13:43:23;;;;;;;10.20;8.20;;;;;;;33.94;91.15;101511.34;10440200;28;20048;-71
2023/09/09 13:48:23;;;;;;;10.63;8.15;;;;;;;33.93;89.24;101511.75;10443261;28;20032;-72
2023/09/09 13:53:24;;;;;;;8.85;7.85;;;;;;;33.63;89.58;101506.25;10439519;28;20155;-72
2023/09/09 13:58:24;;;;;;;11.68;8.50;;;;;;;33.20;92.92;101514.47;10444743;28;20415;-72
2023/09/09 14:03:25;;;;;;;13.07;7.43;;;;;;;33.64;92.87;101513.63;10437676;28;20044;-71
2023/09/09 14:08:25;;;;;;;12.57;8.75;;;;;;;34.18;88.32;101503.31;10441662;28;20044;-72
2023/09/09 14:13:26;;;;;;;11.15;9.75;;;;;;;34.24;87.89;101501.69;10441000;28;20037;-71
2023/09/09 14:18:26;;;;;;;16.63;10.48;;;;;;;35.13;83.69;101494.50;10443001;28;20044;-73
2023/09/09 14:23:26;;;;;;;9.40;8.35;;;;;;;35.33;84.24;101497.81;10443766;28;20071;-73
2023/09/09 14:28:27;;;;;;;12.02;9.02;;;;;;;34.90;84.79;101495.72;10438573;28;20037;-72
2023/09/09 14:33:28;;;;;;;10.00;9.00;;;;;;;34.81;84.17;101503.06;10444923;28;20045;-72
2023/09/09 14:38:29;;;;;;;11.77;9.95;;;;;;;34.82;82.79;101502.66;10437251;28;20037;-73
2023/09/09 14:43:29;;;;;;;11.45;8.30;;;;;;;34.36;86.74;101514.81;10435159;28;20038;-71
2023/09/09 14:48:38;;;;;;;12.32;9.18;;;;;;;33.75;85.07;101503.06;10442035;28;20048;-71
2023/09/09 14:53:38;;;;;;;11.73;9.65;;;;;;;33.41;86.71;101500.38;10437074;28;20053;-72
2023/09/09 14:58:39;;;;;;;12.43;8.52;;;;;;;33.34;87.33;101488.91;10444391;28;20037;-71
2023/09/09 15:03:41;;;;;;;10.38;9.25;;;;;;;32.89;88.21;101505.22;10436078;28;20037;-71
2023/09/09 15:08:41;;;;;;;13.35;9.68;;;;;;;32.51;87.39;101507.25;10437782;28;20045;-71
2023/09/09 15:13:41;;;;;;;10.73;9.23;;;;;;;32.32;86.96;101509.06;10434466;28;20037;-71
2023/09/09 15:18:42;;;;;;;10.20;8.38;;;;;;;31.87;87.92;101507.25;10442898;28;20041;-71
2023/09/09 15:23:42;;;;;;;8.98;7.63;;;;;;;31.97;89.79;101518.78;10438685;28;20048;-71
2023/09/09 15:28:43;;;;;;;10.52;9.02;;;;;;;31.62;88.00;101509.75;10444240;28;20038;-71
2023/09/09 15:33:43;;;;;;;11.85;8.75;;;;;;;31.02;88.57;101522.56;10439299;28;20067;-71
2023/09/09 15:38:44;;;;;;;8.82;7.22;;;;;;;30.18;92.21;101473.06;10436910;28;20049;-74
2023/09/09 15:43:45;;;;;;;12.52;7.78;;;;;;;29.52;91.64;101512.53;10440052;28;20041;-72
2023/09/09 15:48:46;;;;;;;10.88;8.70;;;;;;;28.91;94.17;101530.81;10444713;28;20500;-70
2023/09/09 15:53:47;;;;;;;8.98;7.35;;;;;;;27.96;97.54;101531.31;10440020;28;20064;-72
2023/09/09 15:58:47;;;;;;;11.98;7.50;;;;;;;27.37;98.13;101546.00;10439959;28;20044;-72
2023/09/09 16:03:47;;;;;;;12.50;8.38;;;;;;;26.93;100.00;101538.00;10438953;28;20033;-73
2023/09/09 16:08:48;;;;;;;10.82;8.40;;;;;;;26.54;100.00;101550.69;10438663;28;20037;-71
2023/09/09 16:13:48;;;;;;;11.40;9.55;;;;;;;26.27;100.00;101546.47;10438086;28;20037;-72
2023/09/09 16:18:49;;;;;;;11.60;7.38;;;;;;;26.12;100.00;101564.84;10438021;28;20111;-72
2023/09/09 16:23:49;;;;;;;10.15;7.05;;;;;;;25.92;100.00;101560.84;10440118;28;20044;-72
2023/09/09 16:28:50;;;;;;;10.32;8.15;;;;;;;25.55;100.00;101572.66;10439991;28;20527;-73
2023/09/09 16:33:50;;;;;;;9.35;7.63;;;;;;;25.39;100.00;101574.41;10437291;28;20044;-72
2023/09/09 16:38:50;;;;;;;10.15;7.45;;;;;;;25.23;100.00;101578.94;10437176;28;20041;-71
2023/09/09 16:43:51;;;;;;;9.82;8.18;;;;;;;25.08;100.00;101580.28;10438730;28;20088;-72
2023/09/09 16:48:52;;;;;;;9.57;8.27;;;;;;;24.92;100.00;101580.81;10442944;28;20492;-71
2023/09/09 16:53:52;;;;;;;10.77;9.02;;;;;;;24.66;100.00;101591.28;10438145;28;20045;-72
2023/09/09 16:58:53;;;;;;;18.30;10.38;;;;;;;24.43;100.00;101580.19;10438443;28;20048;-71
2023/09/09 17:03:53;;;;;;;8.15;7.30;;;;;;;24.29;100.00;101599.22;10434242;28;20045;-71
2023/09/09 17:08:54;;;;;;;9.95;7.97;;;;;;;24.07;100.00;101603.03;10439074;28;20045;-71
2023/09/09 17:13:55;;;;;;;9.23;6.32;;;;;;;23.94;100.00;101610.44;10435115;28;20083;-71
2023/09/09 17:18:56;;;;;;;10.02;7.45;;;;;;;23.71;100.00;101612.47;10436748;28;20041;-71
2023/09/09 17:23:56;;;;;;;12.73;7.38;;;;;;;23.57;100.00;101601.38;10438557;28;20065;-70
2023/09/09 17:28:57;;;;;;;10.95;7.72;;;;;;;23.36;100.00;101621.63;10430772;28;20033;-71
2023/09/09 17:33:57;;;;;;;8.52;7.22;;;;;;;23.14;100.00;101618.88;10429607;28;20048;-73
2023/09/09 17:39:05;;;;;;;11.80;8.10;;;;;;;23.00;100.00;101620.88;10436001;28;20797;-69
2023/09/09 17:44:06;;;;;;;8.52;6.93;;;;;;;22.83;100.00;101627.22;10425983;28;20029;-69
2023/09/09 17:49:06;;;;;;;8.95;7.28;;;;;;;22.35;100.00;101583.78;10429634;28;20063;-69
2023/09/09 17:54:06;;;;;;;12.07;7.47;;;;;;;22.21;100.00;101606.22;10419331;28;20041;-69
2023/09/09 17:59:07;;;;;;;9.95;7.75;;;;;;;22.16;100.00;101637.19;10412046;28;20061;-72
2023/09/09 18:04:07;;;;;;;9.77;7.70;;;;;;;21.96;100.00;101644.06;10418077;28;20049;-72
2023/09/09 18:09:08;;;;;;;10.30;8.00;;;;;;;21.74;100.00;101648.41;10417616;28;20060;-71
2023/09/09 18:14:08;;;;;;;16.13;11.65;;;;;;;21.49;100.00;101658.16;10417903;28;20505;-71
2023/09/09 18:19:09;;;;;;;16.05;11.93;;;;;;;21.31;100.00;101657.09;10409994;28;20544;-70
2023/09/09 18:24:09;;;;;;;18.60;14.23;;;;;;;21.16;100.00;101658.16;10423928;28;20050;-71
2023/09/09 18:29:10;;;;;;;17.08;14.02;;;;;;;21.01;100.00;101664.06;10425078;28;20045;-68
2023/09/09 18:34:10;;;;;;;17.70;13.90;;;;;;;20.84;100.00;101670.22;10441804;28;20044;-68
2023/09/09 18:39:11;;;;;;;19.65;15.27;;;;;;;20.71;100.00;101673.75;10419851;28;20233;-68
2023/09/09 18:44:11;;;;;;;24.08;16.25;;;;;;;20.58;100.00;101682.91;10430419;28;20044;-68
2023/09/09 18:49:12;;;;;;;25.25;19.70;;;;;;;20.43;100.00;101695.16;10442977;28;20041;-68
2023/09/09 18:54:13;;;;;;;37.65;28.98;;;;;;;20.30;100.00;101691.97;10441633;28;20119;-68
2023/09/09 18:59:15;;;;;;;36.42;27.58;;;;;;;20.19;100.00;101693.22;10441409;28;20045;-69
2023/09/09 19:04:15;;;;;;;41.10;27.52;;;;;;;20.11;100.00;101700.31;10436517;28;20440;-68
2023/09/09 19:09:17;;;;;;;39.30;29.88;;;;;;;20.04;100.00;101699.00;10441218;28;20068;-69
2023/09/09 19:14:18;;;;;;;36.60;27.38;;;;;;;19.95;100.00;101699.66;10434457;28;20045;-68
2023/09/09 19:19:18;;;;;;;34.75;25.60;;;;;;;19.91;100.00;101708.97;10436801;28;20045;-68
2023/09/09 19:24:19;;;;;;;32.95;25.15;;;;;;;19.83;100.00;101710.44;10437612;28;20041;-69
2023/09/09 19:29:19;;;;;;;32.28;24.65;;;;;;;19.77;100.00;101716.38;10434367;28;20052;-68
2023/09/09 19:34:20;;;;;;;32.30;24.60;;;;;;;19.70;100.00;101722.25;10436870;28;20049;-68
2023/09/09 19:39:20;;;;;;;40.15;27.13;;;;;;;19.60;100.00;101711.22;10370944;28;20046;-70
2023/09/09 19:44:21;;;;;;;36.30;24.42;;;;;;;19.53;100.00;101720.78;10376552;28;20045;-69
2023/09/09 19:49:21;;;;;;;35.00;25.40;;;;;;;19.43;100.00;101722.81;10375120;28;20409;-68
2023/09/09 19:54:21;;;;;;;35.63;25.52;;;;;;;19.31;100.00;101720.44;10376829;28;20057;-69
2023/09/09 19:59:22;;;;;;;33.05;24.02;;;;;;;19.19;100.00;101725.56;10358204;28;20049;-69
2023/09/09 20:04:22;;;;;;;34.10;23.85;;;;;;;19.10;100.00;101737.34;10353086;28;20030;-68
2023/09/09 20:09:23;;;;;;;35.42;25.15;;;;;;;19.02;100.00;101737.97;10359526;28;20038;-69
2023/09/09 20:14:24;;;;;;;33.45;25.23;;;;;;;18.96;100.00;101733.53;10367232;28;20046;-68
2023/09/09 20:19:24;;;;;;;38.13;26.42;;;;;;;18.90;100.00;101735.53;10368394;28;20045;-65
2023/09/09 20:24:25;;;;;;;37.30;27.30;;;;;;;18.86;100.00;101733.63;10369065;28;20084;-70
2023/09/09 20:29:25;;;;;;;38.20;27.48;;;;;;;18.84;100.00;101730.28;10361574;28;20576;-69
2023/09/09 20:34:25;;;;;;;38.53;26.98;;;;;;;18.79;100.00;101735.88;10359564;28;20038;-68
2023/09/09 20:39:26;;;;;;;34.72;26.90;;;;;;;18.70;100.00;101736.47;10364765;28;20457;-68
2023/09/09 20:44:28;;;;;;;32.53;25.23;;;;;;;18.62;100.00;101730.66;10374353;28;20490;-68
2023/09/09 20:49:29;;;;;;;35.35;25.63;;;;;;;18.49;100.00;101735.75;10364792;28;20117;-67
2023/09/09 20:54:30;;;;;;;33.90;26.05;;;;;;;18.39;100.00;101746.13;10365471;28;20069;-68
2023/09/09 20:59:30;;;;;;;36.47;27.05;;;;;;;18.27;100.00;101750.09;10365019;28;20478;-68
2023/09/09 21:04:31;;;;;;;41.17;28.40;;;;;;;18.16;100.00;101745.66;10350623;28;20042;-68
2023/09/09 21:09:31;;;;;;;39.28;28.35;;;;;;;18.05;100.00;101741.25;10372752;28;20045;-68
2023/09/09 21:14:32;;;;;;;40.47;27.98;;;;;;;17.92;100.00;101745.44;10374157;28;20044;-67
2023/09/09 21:19:32;;;;;;;39.78;29.17;;;;;;;17.83;100.00;101744.38;10374274;28;20104;-67
2023/09/09 21:24:32;;;;;;;37.85;28.92;;;;;;;17.74;100.00;101752.44;10374491;28;20065;-68
2023/09/09 21:29:33;;;;;;;40.80;29.70;;;;;;;17.69;100.00;101746.84;10405009;28;20509;-67
2023/09/09 21:34:34;;;;;;;43.10;29.33;;;;;;;17.60;100.00;101745.78;10422167;28;20104;-67
2023/09/09 21:39:35;;;;;;;43.60;30.23;;;;;;;17.51;100.00;101743.56;10428883;28;20163;-67
2023/09/09 21:44:36;;;;;;;43.15;32.33;;;;;;;17.43;100.00;101738.56;10428268;28;20538;-68
2023/09/09 21:49:36;;;;;;;45.65;31.25;;;;;;;17.35;100.00;101744.69;10437393;28;20037;-68
2023/09/09 21:54:37;;;;;;;44.17;32.78;;;;;;;17.28;100.00;101739.41;10433176;28;20072;-68
2023/09/09 21:59:37;;;;;;;50.00;33.92;;;;;;;17.21;100.00;101746.34;10437333;28;20042;-67
2023/09/09 22:04:37;;;;;;;52.72;36.92;;;;;;;16.86;100.00;101695.13;10429843;28;20044;-68
2023/09/09 22:09:38;;;;;;;58.42;40.70;;;;;;;17.12;100.00;101729.38;10436070;28;20033;-68
2023/09/09 22:14:38;;;;;;;52.83;35.47;;;;;;;17.11;100.00;101741.59;10435959;28;20041;-67
2023/09/09 22:19:39;;;;;;;55.65;38.00;;;;;;;17.08;100.00;101740.22;10430562;28;20048;-67
2023/09/09 22:24:39;;;;;;;62.17;37.65;;;;;;;17.07;100.00;101744.09;10420710;28;20056;-67
2023/09/09 22:29:40;;;;;;;55.30;37.35;;;;;;;17.03;100.00;101756.91;10433912;28;20043;-68